Flight Track Log - Related Links

Times and Time Zones

All times are in EDT time to prevent confusion due to time zone crossing. See the N373LD flight status page for this flight to view local times or setup timezone preferences in your user account.

Time Position Orientation Groundspeed Altitude Reporting Facility
EDT Latitude Longitude Course Direction KTS MPH feet Rate Location/Type
Sun 07:36:41 PM 35.4697 -101.2903 160° South 162 186 10,100  Level Fort Center
Sun 07:37:43 PM 35.4239 -101.2683 159° South 169 194 11,300 1,163 Climbing Fort Center
Sun 07:38:50 PM 35.3683 -101.2400 157° South 174 200 12,600 1,219 Climbing Albuquerque Center
Sun 07:39:51 PM 35.3194 -101.2153 158° South 183 211 13,900 1,220 Climbing Albuquerque Center
Sun 07:40:53 PM 35.2714 -101.1928 159° South 184 212 15,100 1,161 Climbing Albuquerque Center
Sun 07:41:00 PM 35.3724 -101.2285 160° South  Level FlightAware
Sun 07:41:55 PM 35.2228 -101.1686 158° South 184 212 16,300  Level Albuquerque Center
Sun 07:42:56 PM 35.1719 -101.1439 158° South 190 219 17,200 1,122 Climbing Albuquerque Center
Sun 07:43:58 PM 35.1214 -101.1183 158° South 192 221 18,600 1,220 Climbing Albuquerque Center
Sun 07:44:59 PM 35.0708 -101.0931 158° South 193 222 19,700 976 Climbing Albuquerque Center
Sun 07:46:01 PM 35.0189 -101.0681 158° South 195 224 20,600 968 Climbing Albuquerque Center
Sun 07:47:03 PM 34.9647 -101.0419 158° South 203 234 21,700 1,171 Climbing Albuquerque Center
Sun 07:48:04 PM 34.9003 -101.0100 158° South 204 235 23,000 1,122 Climbing Albuquerque Center
Sun 07:49:06 PM 34.8464 -100.9833 158° South 207 238 24,000 919 Climbing Albuquerque Center
Sun 07:50:08 PM 34.7914 -100.9564 158° South 209 241 24,900 878 Climbing Albuquerque Center
Sun 07:51:09 PM 34.7364 -100.9289 158° South 212 244 25,800 878 Climbing Albuquerque Center
Sun 07:52:11 PM 34.6792 -100.9028 159° South 215 247 26,700 595 Climbing Albuquerque Center
Sun 07:53:10 PM 34.6206 -100.8728 157° South 222 255 27,000 149 Climbing Fort Center
Sun 07:54:12 PM 34.5553 -100.8428 159° South 243 280 27,000  Level Fort Center
Sun 07:55:13 PM 34.4869 -100.8111 159° South 256 295 27,000  Level Fort Center
Sun 07:56:15 PM 34.4183 -100.7797 159° South 259 298 27,000  Level Fort Center
Sun 07:57:17 PM 34.3378 -100.7375 157° South 260 299 27,000  Level Fort Center
Sun 07:58:19 PM 34.2703 -100.7061 159° South 260 299 27,000  Level Fort Center
Sun 07:59:20 PM 34.2028 -100.6717 157° South 260 299 27,000  Level Fort Center
Sun 08:00:22 PM 34.1367 -100.6394 158° South 260 299 27,000  Level Fort Center
Sun 08:01:24 PM 34.0689 -100.6083 159° South 259 298 27,000  Level Fort Center
Sun 08:02:26 PM 33.9958 -100.5739 159° South 260 299 27,000  Level Fort Center
Sun 08:03:27 PM 33.9292 -100.5394 157° South 259 298 27,000  Level Fort Center
Sun 08:04:29 PM 33.8603 -100.5086 160° South 260 299 27,000  Level Fort Center
Sun 08:05:31 PM 33.7922 -100.4767 159° South 260 299 27,000  Level Fort Center
Sun 08:06:33 PM 33.7242 -100.4428 158° South 260 299 27,000  Level Fort Center
Sun 08:07:35 PM 33.6564 -100.4111 159° South 261 300 27,000  Level Fort Center
Sun 08:08:36 PM 33.5742 -100.3733 159° South 261 300 27,000  Level Fort Center
Sun 08:09:38 PM 33.5081 -100.3411 158° South 260 299 27,000  Level Fort Center
Sun 08:10:40 PM 33.4411 -100.3092 158° South 260 299 27,000  Level Fort Center
Sun 08:11:42 PM 33.3739 -100.2789 159° South 259 298 27,000  Level Fort Center
Sun 08:12:43 PM 33.3086 -100.2475 158° South 257 296 27,000  Level Fort Center
Sun 08:13:45 PM 33.2433 -100.2164 158° South 256 295 27,000  Level Fort Center
Sun 08:14:47 PM 33.1783 -100.1867 159° South 253 291 27,000  Level Fort Center
Sun 08:15:49 PM 33.1017 -100.1503 158° South 251 289 27,000  Level Fort Center
Sun 08:16:50 PM 33.0375 -100.1208 159° South 250 288 27,000  Level Fort Center
Sun 08:17:52 PM 32.9736 -100.0911 159° South 249 287 27,000  Level Fort Center
Sun 08:18:54 PM 32.9094 -100.0606 158° South 249 287 27,000  Level Fort Center
Sun 08:19:56 PM 32.8450 -100.0314 159° South 249 287 27,000  Level Fort Center
Sun 08:20:57 PM 32.7814 -100.0025 159° South 249 287 27,000  Level Fort Center
Sun 08:21:59 PM 32.7100 -99.9678 158° South 249 287 27,000  Level Fort Center
Sun 08:23:01 PM 32.6469 -99.9394 159° South 248 285 27,000  Level Fort Center
Sun 08:24:03 PM 32.5797 -99.9083 159° South 248 285 27,000  Level Fort Center
Sun 08:25:04 PM 32.5156 -99.8789 159° South 248 285 27,000  Level Fort Center
Sun 08:26:06 PM 32.4511 -99.8481 158° South 248 285 27,000  Level Fort Center
Sun 08:27:08 PM 32.3744 -99.8072 156° South 251 289 27,000  Level Fort Center
Sun 08:28:10 PM 32.3103 -99.7733 156° South 251 289 27,000  Level Fort Center
Sun 08:29:11 PM 32.2464 -99.7394 156° South 251 289 27,000  Level Fort Center
Sun 08:30:13 PM 32.1825 -99.7075 157° South 251 289 27,000  Level Fort Center
Sun 08:31:15 PM 32.1178 -99.6733 156° South 251 289 27,000  Level Fort Center
Sun 08:32:17 PM 32.0547 -99.6403 156° South 251 289 27,000  Level Fort Center
Sun 08:33:18 PM 31.9914 -99.6083 157° South 249 287 27,000  Level Fort Center
Sun 08:34:20 PM 31.9275 -99.5761 157° South 249 287 27,000  Level Fort Center
Sun 08:35:22 PM 31.8536 -99.5378 156° South 248 285 27,000  Level Fort Center
Sun 08:36:24 PM 31.7908 -99.5064 157° South 246 283 27,000  Level Fort Center
Sun 08:37:26 PM 31.7292 -99.4728 155° Southeast 246 283 27,000  Level Fort Center
Sun 08:38:27 PM 31.6658 -99.4422 158° South 246 283 27,000  Level Fort Center
Sun 08:39:29 PM 31.6031 -99.4083 155° Southeast 246 283 27,000  Level Fort Center
Sun 08:40:31 PM 31.5408 -99.3764 156° South 246 283 27,000  Level Fort Center
Sun 08:41:33 PM 31.4797 -99.3453 157° South 244 281 27,000  Level Fort Center
Sun 08:42:34 PM 31.4078 -99.3086 156° South 237 273 27,000 -49 Level Fort Center
Sun 08:43:36 PM 31.3503 -99.2811 158° South 230 265 26,900  Descending Fort Center
Sun 08:44:38 PM 31.2917 -99.2514 157° South 229 264 27,000 48 Climbing Fort Center
Sun 08:45:40 PM 31.2339 -99.2219 156° South 229 264 27,000  Level Fort Center
Sun 08:46:41 PM 31.1725 -99.1903 156° South 230 265 27,000 -49 Level Fort Center
Sun 08:47:43 PM 31.1147 -99.1614 157° South 230 265 26,900  Descending Fort Center
Sun 08:48:44 PM 31.0558 -99.1308 156° South 230 265 27,000 49 Climbing Houston Center
Sun 08:49:45 PM 30.9969 -99.0992 155° Southeast 230 265 27,000  Level Houston Center
Sun 08:50:47 PM 30.9269 -99.0664 158° South 230 265 27,000  Level Houston Center
Sun 08:51:49 PM 30.8711 -99.0369 156° South 224 258 27,000  Level Houston Center
Sun 08:52:51 PM 30.8144 -99.0097 158° South 221 254 27,000 -293 Level Houston Center
Sun 08:53:52 PM 30.7617 -98.9828 156° South 211 243 26,400 -1,171 Descending Houston Center
Sun 08:54:54 PM 30.7069 -98.9556 157° South 211 243 24,600 -1,742 Descending Houston Center
Sun 08:55:56 PM 30.6489 -98.9269 157° South 221 254 22,800 -1,790 Descending Houston Center
Sun 08:56:58 PM 30.5883 -98.8967 157° South 231 266 20,900 -2,081 Descending Houston Center
Sun 08:58:00 PM 30.5181 -98.8606 156° South 231 266 18,500 -2,293 Descending Houston Center
Sun 08:59:01 PM 30.4631 -98.8342 158° South 221 254 16,200 -2,146 Descending Houston Center
Sun 09:00:03 PM 30.4075 -98.8061 156° South 212 244 14,100 -1,966 Descending Houston Center
Sun 09:00:57 PM 30.3556 -98.7817 158° South 215 247 12,400 -1,846 Descending Houston Center
Sun 09:01:21 PM 30.3336 -98.7722 160° South 218 251 11,700 -2,057 Descending Houston Center
Sun 09:02:07 PM 30.2914 -98.7489 154° Southeast 216 249 10,000 -2,100 Descending Houston Center
Sun 09:02:21 PM 30.2786 -98.7425 157° South 221 254 9,600 -1,377 Descending Houston Center
Sun 09:03:08 PM 30.2353 -98.7194 155° Southeast 219 252 8,600 -1,068 Descending Houston Center
Sun 09:03:34 PM 30.2125 -98.7092 159° South 202 232 8,300 -484 Descending Houston Center
Sun 09:04:10 PM 30.1856 -98.7022 167° South 169 194 8,100 -179 Descending Houston Center
Sun 09:04:41 PM 30.1614 -98.6983 172° South 178 205 8,100  Level Houston Center
Sun 09:05:12 PM 30.1319 -98.6900 166° South 192 221 8,100  Level Houston Center
Sun 09:05:41 PM 30.1061 -98.6903 181° South 203 234 8,100  Level Houston Center
Sun 09:06:13 PM 30.0761 -98.6781 161° South 201 231 8,100  Level Houston Center
Sun 09:06:42 PM 30.0453 -98.6686 165° South 215 247 8,100  Level Houston Center
Sun 09:07:15 PM 30.0169 -98.6578 162° South 208 239 8,100 -295 Level Houston Center
Sun 09:07:43 PM 29.9892 -98.6511 168° South 207 238 7,800 -484 Descending Houston Center
Sun 09:08:17 PM 29.9614 -98.6422 165° South 205 236 7,600 -500 Descending Houston Center
Sun 09:08:43 PM 29.9372 -98.6356 167° South 196 226 7,300 -590 Descending Houston Center
Sun 09:09:18 PM 29.9117 -98.6278 165° South 186 214 7,000 -492 Descending Houston Center
Sun 09:09:44 PM 29.8900 -98.6219 167° South 170 196 6,800 -484 Descending Houston Center
Sun 09:10:20 PM 29.8633 -98.6142 166° South 169 194 6,500 -448 Descending Houston Center
Sun 09:10:51 PM 29.8403 -98.6086 168° South 171 197 6,300 -387 Descending Houston Center
Sun 09:11:22 PM 29.8125 -98.6006 166° South 187 215 6,100 -182 Descending Houston Center
Sun 09:11:57 PM 29.7800 -98.5917 167° South 194 223 6,100  Level Houston Center
Sun 09:12:23 PM 29.7583 -98.5847 164° South 188 216 6,100  Level Houston Center
Sun 09:12:52 PM 29.7347 -98.5781 166° South 182 209 6,100  Level Houston Center
Sun 09:13:25 PM 29.7092 -98.5700 165° South 183 211 6,100  Level Houston Center
Sun 09:13:53 PM 29.6853 -98.5647 169° South 180 207 6,100  Level Houston Center
Sun 09:14:27 PM 29.6597 -98.5572 166° South 183 211 6,100 -300 Level Houston Center
Sun 09:14:53 PM 29.6314 -98.5494 167° South 209 241 5,800 -590 Descending Houston Center
Sun 09:15:28 PM 29.5956 -98.5394 166° South 218 251 5,500 -492 Descending Houston Center
Sun 09:15:54 PM 29.5733 -98.5347 170° South 219 252 5,300 -387 Descending Houston Center
Sun 09:16:30 PM 29.5403 -98.5236 164° South 210 242 5,100 -182 Descending Houston Center
Sun 09:17:00 PM 29.5106 -98.5158 167° South 200 230 5,100 -290 Level Houston Center
Sun 09:17:32 PM 29.4833 -98.5072 165° South 202 232 4,800 -492 Descending Houston Center
Sun 09:18:01 PM 29.4589 -98.5003 166° South 193 222 4,600 -467 Descending Houston Center
Sun 09:19:02 PM 29.4094 -98.4872 167° South 181 208 4,100 -887 Descending Houston Center
Sun 09:19:56 PM 29.3631 -98.4856 178° South 190 219 2,900 -1,277 Descending Houston Center
Sun 09:20:36 PM 29.3289 -98.4900 186° South 187 215 2,100 -1,091 Descending Houston Center
Sun 09:20:51 PM 29.3208 -98.4833 144° Southeast 175 201 1,900 -261 Descending Houston Center
Sun 09:21:45 PM 29.3053 -98.4517 119° Southeast 122 140 1,800 -500 Descending Houston Center
Sun 09:22:39 PM 29.3244 -98.4589 342° North 101 116 1,000 -889 Descending Houston Center
Sun 09:24:00 PM 29.3333 -98.4667 319° Northwest  Level FlightAware

Login

Don't have an account? Register now (free) for customized features, flight alerts, and more!